createdAt,value
2023-03-01T00:00:01.766Z,2.87
2023-03-01T00:02:28.282Z,2.90
2023-03-01T00:04:54.766Z,2.69
2023-03-01T00:07:21.281Z,2.62
2023-03-01T00:09:47.749Z,2.51
2023-03-01T00:12:14.246Z,2.61
2023-03-01T00:14:40.918Z,2.77
2023-03-01T00:17:07.542Z,2.87
2023-03-01T00:19:35.174Z,2.80
2023-03-01T00:22:01.831Z,2.92
2023-03-01T00:24:28.421Z,2.96
2023-03-01T00:26:56.469Z,2.90
2023-03-01T00:29:24.069Z,2.83
2023-03-01T00:31:50.759Z,2.61
2023-03-01T00:34:17.269Z,2.83
2023-03-01T00:36:44.024Z,2.98
2023-03-01T00:39:14.784Z,3.04
2023-03-01T00:41:41.717Z,3.02
2023-03-01T00:44:08.638Z,3.05
2023-03-01T00:46:36.098Z,3.04
2023-03-01T00:49:03.271Z,3.21
2023-03-01T00:51:29.964Z,3.04
2023-03-01T00:53:58.536Z,2.74
2023-03-01T00:56:25.331Z,2.74
2023-03-01T00:58:51.913Z,2.80
2023-03-01T01:01:22.669Z,3.01
2023-03-01T01:03:57.785Z,3.10
2023-03-01T01:06:25.567Z,3.29
2023-03-01T01:08:52.741Z,3.08
2023-03-01T01:11:19.612Z,3.01
2023-03-01T01:13:47.328Z,3.11
2023-03-01T01:16:14.282Z,3.04
2023-03-01T01:18:41.492Z,3.10
2023-03-01T01:21:10.539Z,3.19
2023-03-01T01:23:37.947Z,3.19
2023-03-01T01:26:08.679Z,3.12
2023-03-01T01:28:36.372Z,3.26
2023-03-01T01:31:03.316Z,3.42
2023-03-01T01:33:29.782Z,3.12
2023-03-01T01:35:56.342Z,3.22
2023-03-01T01:38:22.940Z,3.13
2023-03-01T01:40:50.521Z,3.09
2023-03-01T01:43:22.150Z,2.95
2023-03-01T01:45:48.891Z,2.89
2023-03-01T01:48:19.400Z,2.89
2023-03-01T01:50:48.659Z,2.93
2023-03-01T01:53:17.087Z,2.90
2023-03-01T01:55:45.925Z,2.78
2023-03-01T01:58:14.745Z,2.69
2023-03-01T02:00:41.257Z,2.85
2023-03-01T02:03:11.145Z,2.66
2023-03-01T02:05:56.166Z,2.76
2023-03-01T02:08:24.326Z,2.63
2023-03-01T02:10:51.868Z,2.69
2023-03-01T02:13:18.534Z,2.81
2023-03-01T02:15:45.622Z,2.83
2023-03-01T02:18:13.884Z,2.69
2023-03-01T02:20:59.100Z,2.89
2023-03-01T02:23:26.527Z,2.85
2023-03-01T02:25:58.486Z,2.72
2023-03-01T02:28:31.685Z,2.66
2023-03-01T02:31:16.962Z,2.89
2023-03-01T02:33:44.988Z,2.72
2023-03-01T02:36:14.699Z,2.58
2023-03-01T02:38:42.146Z,2.53
2023-03-01T02:41:09.811Z,2.47
2023-03-01T02:43:36.306Z,2.41
2023-03-01T02:46:07.028Z,2.56
2023-03-01T02:48:44.048Z,2.59
2023-03-01T02:51:32.204Z,2.50
2023-03-01T02:54:02.607Z,2.47
2023-03-01T02:56:30.165Z,2.36
2023-03-01T02:59:01.559Z,2.42
2023-03-01T03:01:38.537Z,2.43
2023-03-01T03:04:08.073Z,2.49
2023-03-01T03:06:34.814Z,2.55
2023-03-01T03:09:01.383Z,2.55
2023-03-01T03:11:27.984Z,2.53
2023-03-01T03:13:55.205Z,2.67
2023-03-01T03:16:21.959Z,2.73
2023-03-01T03:18:49.090Z,2.78
2023-03-01T03:21:16.181Z,2.78
2023-03-01T03:23:42.810Z,2.75
2023-03-01T03:26:09.245Z,2.83
2023-03-01T03:28:36.230Z,2.72
2023-03-01T03:31:05.748Z,2.67
2023-03-01T03:33:32.252Z,2.86
2023-03-01T03:35:58.872Z,2.85
2023-03-01T03:38:25.656Z,2.98
2023-03-01T03:40:53.730Z,2.76
2023-03-01T03:43:22.058Z,2.72
2023-03-01T03:45:49.447Z,2.65
2023-03-01T03:48:16.121Z,2.56
2023-03-01T03:50:43.017Z,2.77
2023-03-01T03:53:10.771Z,2.87
2023-03-01T03:55:40.067Z,2.79
2023-03-01T03:58:07.903Z,2.64
2023-03-01T04:00:39.863Z,2.76
2023-03-01T04:03:06.576Z,2.68
2023-03-01T04:05:33.285Z,2.59
2023-03-01T04:08:03.378Z,2.71
2023-03-01T04:10:30.840Z,2.77
2023-03-01T04:12:57.935Z,2.79
2023-03-01T04:15:25.653Z,2.76
2023-03-01T04:17:53.733Z,2.71
2023-03-01T04:20:27.239Z,2.80
2023-03-01T04:22:58.254Z,2.86
2023-03-01T04:25:24.948Z,2.93
2023-03-01T04:27:53.208Z,3.03
2023-03-01T04:30:19.811Z,2.92
2023-03-01T04:32:46.352Z,2.78
2023-03-01T04:35:12.854Z,2.62
2023-03-01T04:37:39.519Z,2.62
2023-03-01T04:40:16.526Z,2.61
2023-03-01T04:42:43.626Z,2.61
2023-03-01T04:45:14.144Z,2.71
2023-03-01T04:47:45.266Z,2.76
2023-03-01T04:50:13.027Z,2.96
2023-03-01T04:52:39.496Z,2.88
2023-03-01T04:55:06.574Z,2.68
2023-03-01T04:57:33.331Z,2.40
2023-03-01T04:59:59.837Z,2.31
2023-03-01T05:02:26.450Z,2.31
2023-03-01T05:04:52.945Z,2.19
2023-03-01T05:07:20.376Z,2.31
2023-03-01T05:09:47.531Z,2.39
2023-03-01T05:12:14.564Z,2.49
2023-03-01T05:14:41.456Z,2.53
2023-03-01T05:17:08.024Z,2.55
2023-03-01T05:19:34.924Z,2.55
2023-03-01T05:22:07.554Z,2.35
2023-03-01T05:24:35.635Z,2.43
2023-03-01T05:27:02.487Z,2.40
2023-03-01T05:29:29.815Z,2.59
2023-03-01T05:31:57.264Z,2.65
2023-03-01T05:34:24.890Z,2.63
2023-03-01T05:36:54.017Z,2.63
2023-03-01T05:39:24.457Z,2.36
2023-03-01T05:41:55.038Z,2.26
2023-03-01T05:44:21.836Z,2.30
2023-03-01T05:46:48.475Z,2.55
2023-03-01T05:49:14.979Z,2.67
2023-03-01T05:51:42.410Z,2.63
2023-03-01T05:54:09.567Z,2.70
2023-03-01T05:56:36.396Z,2.65
2023-03-01T05:59:03.100Z,2.85
2023-03-01T06:01:30.258Z,2.91
2023-03-01T06:03:57.635Z,3.03
2023-03-01T06:06:27.064Z,3.01
2023-03-01T06:08:55.284Z,2.93
2023-03-01T06:11:22.394Z,2.89
2023-03-01T06:13:48.852Z,2.56
2023-03-01T06:16:15.434Z,2.56
2023-03-01T06:18:42.281Z,2.81
2023-03-01T06:21:09.328Z,2.75
2023-03-01T06:23:35.996Z,2.54
2023-03-01T06:26:05.977Z,2.63
2023-03-01T06:28:32.435Z,2.81
2023-03-01T06:30:58.921Z,3.00
2023-03-01T06:33:25.539Z,3.07
2023-03-01T06:35:52.315Z,3.06
2023-03-01T06:38:19.884Z,3.02
2023-03-01T06:40:52.388Z,2.89
2023-03-01T06:43:18.812Z,2.98
2023-03-01T06:45:45.235Z,3.02
2023-03-01T06:48:11.701Z,3.11
2023-03-01T06:50:38.656Z,3.18
2023-03-01T06:53:05.459Z,3.07
2023-03-01T06:55:32.312Z,3.17
2023-03-01T06:57:59.468Z,2.92
2023-03-01T07:00:26.715Z,2.97
2023-03-01T07:02:53.310Z,3.04
2023-03-01T07:05:20.035Z,3.28
2023-03-01T07:07:46.526Z,3.21
2023-03-01T07:10:13.414Z,3.16
2023-03-01T07:12:40.003Z,3.23
2023-03-01T07:15:06.755Z,3.30
2023-03-01T07:17:33.205Z,3.34
2023-03-01T07:19:59.632Z,3.32
2023-03-01T07:22:26.140Z,3.52
2023-03-01T07:24:52.598Z,3.34
2023-03-01T07:27:19.038Z,3.38
2023-03-01T07:29:45.548Z,3.59
2023-03-01T07:32:12.215Z,3.75
2023-03-01T07:34:38.815Z,3.61
2023-03-01T07:37:05.393Z,3.71
2023-03-01T07:39:31.893Z,3.58
2023-03-01T07:41:58.428Z,3.55
2023-03-01T07:44:24.916Z,3.45
2023-03-01T07:46:53.368Z,3.43
2023-03-01T07:49:19.925Z,3.50
2023-03-01T07:51:46.415Z,3.64
2023-03-01T07:54:12.952Z,3.55
2023-03-01T07:56:39.459Z,3.62
2023-03-01T07:59:05.886Z,3.82
2023-03-01T08:01:32.406Z,3.87
2023-03-01T08:03:58.995Z,3.66
2023-03-01T08:06:25.501Z,3.80
2023-03-01T08:08:52.015Z,3.83
2023-03-01T08:11:18.557Z,3.71
2023-03-01T08:13:45.106Z,3.89
2023-03-01T08:16:13.278Z,3.81
2023-03-01T08:18:40.030Z,4.20
2023-03-01T08:21:11.308Z,3.80
2023-03-01T08:23:37.811Z,3.84
2023-03-01T08:26:14.985Z,3.88
2023-03-01T08:28:41.737Z,3.75
2023-03-01T08:31:18.882Z,3.92
2023-03-01T08:33:45.444Z,3.87
2023-03-01T08:36:11.905Z,3.70
2023-03-01T08:38:38.309Z,3.84
2023-03-01T08:41:05.038Z,3.87
2023-03-01T08:43:31.723Z,3.86
2023-03-01T08:45:58.358Z,3.57
2023-03-01T08:48:24.912Z,3.71
2023-03-01T08:50:51.596Z,3.80
2023-03-01T08:53:18.063Z,3.89
2023-03-01T08:55:44.479Z,3.83
2023-03-01T08:58:10.928Z,3.69
2023-03-01T09:00:37.378Z,3.67
2023-03-01T09:03:03.847Z,3.85
2023-03-01T09:05:32.471Z,3.66
2023-03-01T09:07:59.011Z,3.69
2023-03-01T09:10:25.593Z,3.71
2023-03-01T09:12:52.245Z,3.63
2023-03-01T09:15:18.730Z,3.48
2023-03-01T09:17:45.206Z,3.40
2023-03-01T09:20:11.953Z,3.71
2023-03-01T09:22:38.388Z,3.73
2023-03-01T09:25:05.096Z,3.94
2023-03-01T09:27:31.650Z,4.01
2023-03-01T09:29:58.177Z,3.75
2023-03-01T09:32:24.659Z,4.83
2023-03-01T09:35:05.694Z,4.41
2023-03-01T09:37:36.313Z,4.27
2023-03-01T09:40:04.699Z,4.40
2023-03-01T09:42:33.122Z,4.28
2023-03-01T09:45:02.831Z,4.50
2023-03-01T09:47:31.505Z,4.79
2023-03-01T09:50:20.465Z,4.07
2023-03-01T09:52:49.852Z,4.29
2023-03-01T09:55:27.229Z,4.24
2023-03-01T09:58:00.569Z,4.01
2023-03-01T10:00:34.197Z,3.50
2023-03-01T10:03:12.919Z,4.23
2023-03-01T10:05:44.808Z,4.68
2023-03-01T10:08:17.425Z,6.05
2023-03-01T10:10:45.471Z,5.09
2023-03-01T10:13:18.007Z,4.58
2023-03-01T10:15:57.018Z,4.86
2023-03-01T10:18:25.928Z,4.55
2023-03-01T10:21:03.292Z,4.11
2023-03-01T10:23:32.550Z,4.34
2023-03-01T10:26:01.895Z,4.15
2023-03-01T10:28:44.601Z,4.21
2023-03-01T10:31:21.428Z,4.72
2023-03-01T10:33:48.992Z,4.94
2023-03-01T10:36:15.662Z,5.27
2023-03-01T10:38:55.439Z,4.86
2023-03-01T10:41:24.386Z,4.55
2023-03-01T10:43:55.158Z,4.44
2023-03-01T10:46:38.116Z,4.37
2023-03-01T10:49:07.663Z,4.58
2023-03-01T10:51:34.315Z,4.17
2023-03-01T10:54:16.037Z,4.71
2023-03-01T10:56:54.612Z,5.07
2023-03-01T10:59:27.317Z,4.44
2023-03-01T11:02:06.976Z,4.35
2023-03-01T11:04:38.851Z,4.53
2023-03-01T11:07:05.410Z,4.26
2023-03-01T11:09:38.571Z,4.11
2023-03-01T11:12:06.447Z,3.82
2023-03-01T11:14:41.816Z,4.09
2023-03-01T11:17:26.913Z,4.35
2023-03-01T11:20:05.852Z,4.92
2023-03-01T11:22:32.718Z,5.05
2023-03-01T11:25:09.318Z,5.03
2023-03-01T11:27:40.753Z,5.26
2023-03-01T11:30:13.352Z,5.75
2023-03-01T11:33:06.218Z,5.57
2023-03-01T11:35:34.292Z,5.64
2023-03-01T11:38:10.481Z,5.35
2023-03-01T11:40:56.222Z,5.56
2023-03-01T11:43:41.556Z,5.84
2023-03-01T11:46:08.094Z,5.86
2023-03-01T11:48:49.391Z,6.22
2023-03-01T11:51:25.665Z,5.45
2023-03-01T11:53:52.354Z,5.82
2023-03-01T11:56:41.621Z,5.61
2023-03-01T11:59:18.825Z,5.92
2023-03-01T12:01:45.400Z,6.11
2023-03-01T12:04:30.043Z,5.40
2023-03-01T12:07:06.839Z,5.36
2023-03-01T12:09:48.325Z,6.32
2023-03-01T12:12:30.823Z,6.88
2023-03-01T12:15:16.273Z,7.07
2023-03-01T12:17:45.719Z,7.32
2023-03-01T12:20:22.976Z,7.48
2023-03-01T12:23:11.286Z,7.24
2023-03-01T12:25:48.039Z,7.40
2023-03-01T12:28:26.702Z,7.44
2023-03-01T12:31:15.006Z,7.25
2023-03-01T12:33:59.388Z,7.32
2023-03-01T12:36:35.197Z,6.64
2023-03-01T12:39:20.547Z,6.44
2023-03-01T12:41:59.067Z,7.00
2023-03-01T12:44:32.798Z,7.01
2023-03-01T12:47:11.724Z,6.96
2023-03-01T12:49:46.175Z,7.05
2023-03-01T12:52:18.884Z,7.47
2023-03-01T12:54:46.069Z,6.82
2023-03-01T12:57:27.243Z,6.43
2023-03-01T12:59:56.676Z,6.74
2023-03-01T13:02:31.661Z,7.04
2023-03-01T13:05:16.928Z,7.06
2023-03-01T13:08:02.207Z,7.11
2023-03-01T13:10:34.738Z,7.45
2023-03-01T13:13:13.693Z,7.58
2023-03-01T13:15:41.817Z,7.53
2023-03-01T13:18:17.265Z,7.46
2023-03-01T13:20:43.698Z,7.32
2023-03-01T13:23:12.983Z,7.40
2023-03-01T13:25:58.527Z,7.63
2023-03-01T13:28:48.102Z,7.54
2023-03-01T13:31:20.844Z,7.11
2023-03-01T13:33:50.612Z,7.09
2023-03-01T13:36:30.025Z,7.51
2023-03-01T13:39:00.619Z,7.08
2023-03-01T13:41:42.433Z,6.69
2023-03-01T13:44:29.904Z,6.93
2023-03-01T13:47:08.515Z,7.31
2023-03-01T13:49:47.559Z,7.02
2023-03-01T13:52:29.415Z,7.23
2023-03-01T13:54:57.136Z,7.08
2023-03-01T13:57:27.136Z,7.12
2023-03-01T13:59:53.945Z,7.23
2023-03-01T14:02:20.458Z,7.25
2023-03-01T14:04:56.924Z,7.24
2023-03-01T14:07:25.280Z,7.20
2023-03-01T14:10:00.743Z,7.10
2023-03-01T14:12:27.985Z,7.13
2023-03-01T14:14:57.451Z,7.14
2023-03-01T14:17:23.873Z,7.05
2023-03-01T14:19:57.259Z,7.03
2023-03-01T14:22:25.026Z,7.15
2023-03-01T14:24:59.993Z,6.87
2023-03-01T14:27:28.155Z,6.44
2023-03-01T14:29:55.740Z,6.77
2023-03-01T14:32:24.843Z,6.61
2023-03-01T14:34:51.719Z,6.59
2023-03-01T14:37:27.360Z,6.25
2023-03-01T14:39:54.613Z,6.21
2023-03-01T14:42:22.652Z,6.34
2023-03-01T14:44:51.149Z,6.38
2023-03-01T14:47:39.237Z,6.62
2023-03-01T14:50:08.656Z,6.81
2023-03-01T14:52:46.318Z,6.64
2023-03-01T14:55:25.621Z,6.51
2023-03-01T14:57:52.436Z,6.26
2023-03-01T15:00:20.949Z,6.38
2023-03-01T15:02:49.541Z,6.39
2023-03-01T15:05:17.014Z,5.99
2023-03-01T15:07:49.786Z,5.96
2023-03-01T15:10:20.472Z,6.22
2023-03-01T15:12:47.134Z,5.97
2023-03-01T15:15:21.950Z,5.90
2023-03-01T15:17:53.481Z,5.79
2023-03-01T15:20:22.951Z,5.54
2023-03-01T15:22:49.744Z,5.81
2023-03-01T15:25:19.905Z,5.81
2023-03-01T15:27:47.679Z,5.61
2023-03-01T15:30:18.232Z,5.82
2023-03-01T15:32:45.411Z,5.95
2023-03-01T15:35:30.779Z,6.09
2023-03-01T15:38:01.406Z,5.97
2023-03-01T15:40:38.178Z,5.77
2023-03-01T15:43:06.624Z,5.92
2023-03-01T15:45:39.514Z,6.03
2023-03-01T15:48:14.787Z,6.10
2023-03-01T15:50:41.972Z,5.93
2023-03-01T15:53:12.222Z,5.95
2023-03-01T15:55:39.000Z,5.98
2023-03-01T15:58:16.807Z,5.91
2023-03-01T16:00:58.212Z,6.05
2023-03-01T16:03:27.117Z,5.90
2023-03-01T16:05:54.531Z,5.89
2023-03-01T16:08:20.989Z,5.85
2023-03-01T16:10:49.316Z,5.75
2023-03-01T16:13:15.820Z,5.76
2023-03-01T16:15:42.646Z,5.56
2023-03-01T16:18:11.176Z,5.71
2023-03-01T16:20:37.609Z,5.68
2023-03-01T16:23:06.023Z,5.62
2023-03-01T16:25:33.254Z,5.63
2023-03-01T16:28:01.851Z,5.61
2023-03-01T16:30:28.410Z,5.61
2023-03-01T16:32:55.151Z,5.47
2023-03-01T16:35:22.601Z,5.36
2023-03-01T16:37:49.483Z,5.36
2023-03-01T16:40:21.737Z,5.20
2023-03-01T16:42:51.573Z,5.29
2023-03-01T16:45:24.216Z,5.33
2023-03-01T16:47:52.130Z,5.34
2023-03-01T16:50:19.868Z,5.27
2023-03-01T16:52:46.330Z,5.14
2023-03-01T16:55:12.811Z,5.07
2023-03-01T16:57:39.920Z,4.95
2023-03-01T17:00:08.563Z,5.12
2023-03-01T17:02:35.873Z,5.07
2023-03-01T17:05:03.552Z,5.15
2023-03-01T17:07:34.094Z,5.16
2023-03-01T17:10:05.198Z,5.09
2023-03-01T17:12:32.968Z,4.91
2023-03-01T17:14:59.474Z,5.00
2023-03-01T17:17:26.105Z,5.08
2023-03-01T17:19:52.524Z,4.91
2023-03-01T17:22:19.037Z,4.88
2023-03-01T17:24:46.005Z,4.92
2023-03-01T17:27:13.302Z,5.07
2023-03-01T17:29:40.801Z,5.04
2023-03-01T17:32:08.071Z,5.12
2023-03-01T17:34:34.798Z,5.04
2023-03-01T17:37:01.278Z,4.80
2023-03-01T17:39:32.284Z,4.85
2023-03-01T17:41:59.115Z,4.77
2023-03-01T17:44:25.723Z,4.91
2023-03-01T17:46:52.232Z,4.91
2023-03-01T17:49:18.731Z,4.82
2023-03-01T17:51:45.580Z,4.99
2023-03-01T17:54:12.065Z,5.12
2023-03-01T17:56:38.787Z,5.00
2023-03-01T17:59:06.188Z,4.70
2023-03-01T18:01:33.821Z,4.70
2023-03-01T18:04:00.597Z,4.75
2023-03-01T18:06:28.039Z,4.87
2023-03-01T18:08:55.253Z,4.89
2023-03-01T18:11:22.910Z,4.78
2023-03-01T18:13:51.054Z,4.87
2023-03-01T18:16:18.845Z,4.97
2023-03-01T18:18:45.358Z,5.00
2023-03-01T18:21:12.319Z,4.93
2023-03-01T18:23:39.404Z,5.21
2023-03-01T18:26:09.411Z,5.17
2023-03-01T18:28:36.369Z,5.10
2023-03-01T18:31:04.812Z,5.14
2023-03-01T18:33:31.898Z,4.98
2023-03-01T18:35:58.684Z,4.51
2023-03-01T18:38:25.581Z,4.57
2023-03-01T18:40:52.916Z,4.86
2023-03-01T18:43:20.505Z,4.77
2023-03-01T18:45:47.067Z,4.86
2023-03-01T18:48:14.348Z,4.78
2023-03-01T18:50:41.730Z,4.62
2023-03-01T18:53:08.653Z,4.63
2023-03-01T18:55:38.780Z,4.73
2023-03-01T18:58:05.767Z,4.78
2023-03-01T19:00:32.665Z,4.67
2023-03-01T19:02:59.752Z,4.69
2023-03-01T19:05:26.247Z,4.51
2023-03-01T19:07:52.758Z,4.58
2023-03-01T19:10:19.652Z,4.56
2023-03-01T19:12:46.143Z,4.49
2023-03-01T19:15:13.036Z,4.42
2023-03-01T19:17:39.506Z,4.52
2023-03-01T19:20:06.356Z,4.46
2023-03-01T19:22:32.988Z,4.36
2023-03-01T19:24:59.460Z,4.55
2023-03-01T19:27:26.169Z,4.44
2023-03-01T19:29:52.610Z,4.38
2023-03-01T19:32:19.207Z,4.49
2023-03-01T19:34:46.677Z,4.28
2023-03-01T19:37:13.317Z,4.11
2023-03-01T19:39:41.378Z,4.13
2023-03-01T19:42:07.949Z,4.06
2023-03-01T19:44:34.386Z,4.02
2023-03-01T19:47:00.790Z,4.11
2023-03-01T19:49:27.732Z,4.11
2023-03-01T19:51:54.225Z,4.03
2023-03-01T19:54:21.714Z,4.06
2023-03-01T19:56:49.040Z,4.07
2023-03-01T19:59:15.774Z,3.96
2023-03-01T20:01:42.489Z,3.92
2023-03-01T20:04:09.530Z,3.86
2023-03-01T20:06:36.881Z,3.99
2023-03-01T20:09:15.298Z,3.98
2023-03-01T20:11:47.199Z,4.01
2023-03-01T20:14:13.699Z,4.11
2023-03-01T20:16:40.255Z,4.12
2023-03-01T20:19:06.849Z,4.07
2023-03-01T20:21:33.674Z,4.08
2023-03-01T20:24:00.431Z,4.04
2023-03-01T20:26:27.346Z,4.01
2023-03-01T20:28:54.932Z,4.11
2023-03-01T20:31:22.809Z,4.10
2023-03-01T20:33:49.363Z,4.19
2023-03-01T20:36:15.967Z,4.24
2023-03-01T20:38:42.423Z,4.31
2023-03-01T20:41:10.328Z,4.37
2023-03-01T20:43:37.078Z,4.23
2023-03-01T20:46:07.692Z,4.29
2023-03-01T20:48:34.199Z,4.30
2023-03-01T20:51:05.228Z,4.19
2023-03-01T20:53:31.748Z,4.36
2023-03-01T20:56:01.900Z,4.35
2023-03-01T20:58:32.665Z,4.43
2023-03-01T21:00:59.990Z,4.35
2023-03-01T21:03:26.460Z,4.54
2023-03-01T21:05:59.609Z,4.63
2023-03-01T21:08:26.238Z,4.58
2023-03-01T21:10:53.713Z,4.77
2023-03-01T21:13:20.701Z,4.68
2023-03-01T21:15:57.803Z,4.74
2023-03-01T21:18:29.619Z,4.66
2023-03-01T21:21:03.011Z,4.64
2023-03-01T21:23:30.422Z,4.64
2023-03-01T21:26:10.499Z,4.66
2023-03-01T21:28:37.783Z,4.51
2023-03-01T21:31:08.792Z,4.49
2023-03-01T21:33:36.399Z,4.70
2023-03-01T21:36:04.116Z,4.75
2023-03-01T21:38:31.612Z,4.69
2023-03-01T21:40:58.220Z,4.64
2023-03-01T21:43:25.093Z,4.73
2023-03-01T21:45:51.573Z,4.65
2023-03-01T21:48:18.112Z,4.66
2023-03-01T21:50:44.586Z,4.72
2023-03-01T21:53:11.106Z,4.69
2023-03-01T21:55:37.654Z,4.75
2023-03-01T21:58:04.102Z,4.78
2023-03-01T22:00:30.715Z,4.75
2023-03-01T22:02:58.021Z,4.83
2023-03-01T22:05:24.682Z,4.89
2023-03-01T22:07:51.104Z,4.84
2023-03-01T22:10:26.772Z,5.02
2023-03-01T22:12:54.485Z,4.94
2023-03-01T22:15:21.533Z,5.08
2023-03-01T22:17:48.107Z,5.04
2023-03-01T22:20:14.975Z,4.92
2023-03-01T22:22:41.692Z,5.42
2023-03-01T22:25:08.679Z,5.45
2023-03-01T22:27:37.214Z,5.84
2023-03-01T22:30:08.211Z,5.05
2023-03-01T22:32:34.748Z,4.96
2023-03-01T22:35:01.210Z,5.04
2023-03-01T22:37:27.658Z,5.10
2023-03-01T22:39:54.225Z,5.11
2023-03-01T22:42:20.724Z,5.17
2023-03-01T22:44:47.205Z,5.12
2023-03-01T22:47:13.723Z,5.07
2023-03-01T22:49:40.236Z,5.12
2023-03-01T22:52:06.778Z,5.04
2023-03-01T22:54:33.276Z,4.94
2023-03-01T22:56:59.736Z,4.95
2023-03-01T22:59:26.185Z,5.04
2023-03-01T23:01:53.323Z,5.02
2023-03-01T23:04:20.386Z,5.08
2023-03-01T23:06:56.165Z,5.06
2023-03-01T23:09:22.673Z,5.10
2023-03-01T23:11:50.638Z,5.03
2023-03-01T23:14:17.167Z,4.84
2023-03-01T23:16:44.073Z,4.87
2023-03-01T23:19:10.566Z,4.81
2023-03-01T23:21:37.237Z,4.86
2023-03-01T23:24:04.071Z,4.84
2023-03-01T23:26:31.060Z,4.80
2023-03-01T23:28:57.697Z,4.75
2023-03-01T23:31:30.118Z,4.57
2023-03-01T23:33:56.751Z,4.70
2023-03-01T23:36:24.527Z,4.70
2023-03-01T23:38:52.630Z,4.81
2023-03-01T23:41:20.266Z,4.82
2023-03-01T23:43:47.602Z,4.66
2023-03-01T23:46:15.026Z,4.83
2023-03-01T23:48:42.499Z,4.86
2023-03-01T23:51:09.345Z,4.79
2023-03-01T23:53:41.318Z,4.81
2023-03-01T23:56:08.566Z,4.95
2023-03-01T23:58:35.093Z,4.91
